sensor_id;sensor_type;location;lat;lon;timestamp;P1;durP1;ratioP1;P2;durP2;ratioP2
55423;SDS011;41294;42.666;23.350;2023-11-22T00:01:58;30.10;;;21.70;;
55423;SDS011;41294;42.666;23.350;2023-11-22T00:04:24;28.67;;;21.03;;
55423;SDS011;41294;42.666;23.350;2023-11-22T00:06:50;30.83;;;21.87;;
55423;SDS011;41294;42.666;23.350;2023-11-22T00:09:15;30.87;;;21.63;;
55423;SDS011;41294;42.666;23.350;2023-11-22T00:11:41;30.50;;;22.03;;
55423;SDS011;41294;42.666;23.350;2023-11-22T00:14:06;31.53;;;22.23;;
55423;SDS011;41294;42.666;23.350;2023-11-22T00:16:31;30.17;;;21.87;;
55423;SDS011;41294;42.666;23.350;2023-11-22T00:18:57;29.03;;;21.17;;
55423;SDS011;41294;42.666;23.350;2023-11-22T00:21:22;28.40;;;21.03;;
55423;SDS011;41294;42.666;23.350;2023-11-22T00:23:48;30.00;;;21.80;;
55423;SDS011;41294;42.666;23.350;2023-11-22T00:26:13;28.10;;;21.20;;
55423;SDS011;41294;42.666;23.350;2023-11-22T00:28:40;27.63;;;20.60;;
55423;SDS011;41294;42.666;23.350;2023-11-22T00:31:06;29.00;;;20.57;;
55423;SDS011;41294;42.666;23.350;2023-11-22T00:33:31;25.73;;;19.40;;
55423;SDS011;41294;42.666;23.350;2023-11-22T00:35:57;29.63;;;20.30;;
55423;SDS011;41294;42.666;23.350;2023-11-22T00:38:23;26.97;;;19.80;;
55423;SDS011;41294;42.666;23.350;2023-11-22T00:40:49;27.57;;;20.30;;
55423;SDS011;41294;42.666;23.350;2023-11-22T00:43:15;30.33;;;20.40;;
55423;SDS011;41294;42.666;23.350;2023-11-22T00:45:42;28.43;;;20.60;;
55423;SDS011;41294;42.666;23.350;2023-11-22T00:48:07;25.63;;;19.23;;
55423;SDS011;41294;42.666;23.350;2023-11-22T00:50:33;25.70;;;19.07;;
55423;SDS011;41294;42.666;23.350;2023-11-22T00:52:59;28.00;;;18.97;;
55423;SDS011;41294;42.666;23.350;2023-11-22T00:55:25;26.73;;;18.77;;
55423;SDS011;41294;42.666;23.350;2023-11-22T00:57:52;25.60;;;18.97;;
55423;SDS011;41294;42.666;23.350;2023-11-22T01:00:17;23.77;;;19.07;;
55423;SDS011;41294;42.666;23.350;2023-11-22T01:02:43;25.50;;;18.40;;
55423;SDS011;41294;42.666;23.350;2023-11-22T01:05:09;24.73;;;19.00;;
55423;SDS011;41294;42.666;23.350;2023-11-22T01:07:36;25.67;;;18.33;;
55423;SDS011;41294;42.666;23.350;2023-11-22T01:10:01;26.17;;;18.17;;
55423;SDS011;41294;42.666;23.350;2023-11-22T01:12:27;30.13;;;19.20;;
55423;SDS011;41294;42.666;23.350;2023-11-22T01:14:52;24.13;;;18.20;;
55423;SDS011;41294;42.666;23.350;2023-11-22T01:17:18;23.90;;;18.07;;
55423;SDS011;41294;42.666;23.350;2023-11-22T01:19:44;24.10;;;18.00;;
55423;SDS011;41294;42.666;23.350;2023-11-22T01:22:09;27.10;;;19.33;;
55423;SDS011;41294;42.666;23.350;2023-11-22T01:24:35;25.63;;;18.53;;
55423;SDS011;41294;42.666;23.350;2023-11-22T01:27:02;26.77;;;18.73;;
55423;SDS011;41294;42.666;23.350;2023-11-22T01:29:28;23.47;;;18.90;;
55423;SDS011;41294;42.666;23.350;2023-11-22T01:31:53;22.20;;;17.73;;
55423;SDS011;41294;42.666;23.350;2023-11-22T01:34:20;21.93;;;17.40;;
55423;SDS011;41294;42.666;23.350;2023-11-22T01:36:45;27.23;;;19.23;;
55423;SDS011;41294;42.666;23.350;2023-11-22T01:39:14;22.20;;;17.70;;
55423;SDS011;41294;42.666;23.350;2023-11-22T01:41:39;26.03;;;18.43;;
55423;SDS011;41294;42.666;23.350;2023-11-22T01:44:07;25.53;;;17.70;;
55423;SDS011;41294;42.666;23.350;2023-11-22T01:46:33;23.90;;;18.40;;
55423;SDS011;41294;42.666;23.350;2023-11-22T01:48:59;25.77;;;18.20;;
55423;SDS011;41294;42.666;23.350;2023-11-22T01:51:25;26.37;;;18.27;;
55423;SDS011;41294;42.666;23.350;2023-11-22T01:53:51;26.77;;;19.60;;
55423;SDS011;41294;42.666;23.350;2023-11-22T01:56:20;24.07;;;17.77;;
55423;SDS011;41294;42.666;23.350;2023-11-22T01:58:46;23.43;;;17.40;;
55423;SDS011;41294;42.666;23.350;2023-11-22T02:01:12;26.33;;;17.50;;
55423;SDS011;41294;42.666;23.350;2023-11-22T02:03:38;25.73;;;17.60;;
55423;SDS011;41294;42.666;23.350;2023-11-22T02:06:04;24.63;;;17.80;;
55423;SDS011;41294;42.666;23.350;2023-11-22T02:08:31;20.03;;;16.50;;
55423;SDS011;41294;42.666;23.350;2023-11-22T02:11:00;24.37;;;17.70;;
55423;SDS011;41294;42.666;23.350;2023-11-22T02:13:29;26.20;;;18.03;;
55423;SDS011;41294;42.666;23.350;2023-11-22T02:15:56;23.43;;;17.33;;
55423;SDS011;41294;42.666;23.350;2023-11-22T02:18:25;27.97;;;18.00;;
55423;SDS011;41294;42.666;23.350;2023-11-22T02:20:51;24.40;;;17.73;;
55423;SDS011;41294;42.666;23.350;2023-11-22T02:23:17;23.83;;;17.70;;
55423;SDS011;41294;42.666;23.350;2023-11-22T02:25:43;20.87;;;16.57;;
55423;SDS011;41294;42.666;23.350;2023-11-22T02:28:09;19.93;;;16.90;;
55423;SDS011;41294;42.666;23.350;2023-11-22T02:30:34;22.43;;;17.87;;
55423;SDS011;41294;42.666;23.350;2023-11-22T02:33:00;21.37;;;17.87;;
55423;SDS011;41294;42.666;23.350;2023-11-22T02:35:26;22.43;;;16.63;;
55423;SDS011;41294;42.666;23.350;2023-11-22T02:37:55;21.53;;;16.53;;
55423;SDS011;41294;42.666;23.350;2023-11-22T02:40:21;22.40;;;17.43;;
55423;SDS011;41294;42.666;23.350;2023-11-22T02:42:48;23.17;;;17.10;;
55423;SDS011;41294;42.666;23.350;2023-11-22T02:45:17;19.53;;;16.30;;
55423;SDS011;41294;42.666;23.350;2023-11-22T02:47:44;22.37;;;17.60;;
55423;SDS011;41294;42.666;23.350;2023-11-22T02:50:11;21.30;;;17.23;;
55423;SDS011;41294;42.666;23.350;2023-11-22T02:52:37;21.40;;;16.70;;
55423;SDS011;41294;42.666;23.350;2023-11-22T02:55:03;20.03;;;16.27;;
55423;SDS011;41294;42.666;23.350;2023-11-22T02:57:30;22.40;;;16.80;;
55423;SDS011;41294;42.666;23.350;2023-11-22T02:59:58;20.87;;;16.33;;
55423;SDS011;41294;42.666;23.350;2023-11-22T03:02:24;22.07;;;16.17;;
55423;SDS011;41294;42.666;23.350;2023-11-22T03:04:50;21.87;;;17.17;;
55423;SDS011;41294;42.666;23.350;2023-11-22T03:07:16;22.33;;;16.57;;
55423;SDS011;41294;42.666;23.350;2023-11-22T03:09:42;19.50;;;15.63;;
55423;SDS011;41294;42.666;23.350;2023-11-22T03:12:09;20.20;;;16.70;;
55423;SDS011;41294;42.666;23.350;2023-11-22T03:14:35;19.37;;;16.40;;
55423;SDS011;41294;42.666;23.350;2023-11-22T03:17:00;22.90;;;16.90;;
55423;SDS011;41294;42.666;23.350;2023-11-22T03:19:26;23.47;;;17.10;;
55423;SDS011;41294;42.666;23.350;2023-11-22T03:21:51;20.77;;;16.30;;
55423;SDS011;41294;42.666;23.350;2023-11-22T03:24:17;22.57;;;16.97;;
55423;SDS011;41294;42.666;23.350;2023-11-22T03:26:42;20.20;;;15.97;;
55423;SDS011;41294;42.666;23.350;2023-11-22T03:29:08;19.10;;;15.40;;
55423;SDS011;41294;42.666;23.350;2023-11-22T03:31:34;22.10;;;16.47;;
55423;SDS011;41294;42.666;23.350;2023-11-22T03:33:59;23.13;;;16.23;;
55423;SDS011;41294;42.666;23.350;2023-11-22T03:36:25;21.37;;;16.33;;
55423;SDS011;41294;42.666;23.350;2023-11-22T03:38:50;23.60;;;16.73;;
55423;SDS011;41294;42.666;23.350;2023-11-22T03:41:16;22.17;;;16.17;;
55423;SDS011;41294;42.666;23.350;2023-11-22T03:43:45;20.43;;;15.47;;
55423;SDS011;41294;42.666;23.350;2023-11-22T03:46:12;21.47;;;16.33;;
55423;SDS011;41294;42.666;23.350;2023-11-22T03:48:37;22.10;;;16.50;;
55423;SDS011;41294;42.666;23.350;2023-11-22T03:51:03;18.97;;;15.90;;
55423;SDS011;41294;42.666;23.350;2023-11-22T03:53:28;20.60;;;15.37;;
55423;SDS011;41294;42.666;23.350;2023-11-22T03:55:54;19.47;;;15.27;;
55423;SDS011;41294;42.666;23.350;2023-11-22T03:58:20;18.97;;;14.60;;
55423;SDS011;41294;42.666;23.350;2023-11-22T04:00:45;20.40;;;16.07;;
55423;SDS011;41294;42.666;23.350;2023-11-22T04:03:11;18.37;;;15.33;;
55423;SDS011;41294;42.666;23.350;2023-11-22T04:05:37;18.23;;;14.83;;
55423;SDS011;41294;42.666;23.350;2023-11-22T04:08:03;19.33;;;16.23;;
55423;SDS011;41294;42.666;23.350;2023-11-22T04:10:28;21.10;;;15.57;;
55423;SDS011;41294;42.666;23.350;2023-11-22T04:12:53;17.37;;;14.40;;
55423;SDS011;41294;42.666;23.350;2023-11-22T04:15:19;21.67;;;15.73;;
55423;SDS011;41294;42.666;23.350;2023-11-22T04:17:44;19.40;;;14.83;;
55423;SDS011;41294;42.666;23.350;2023-11-22T04:20:10;21.50;;;15.73;;
55423;SDS011;41294;42.666;23.350;2023-11-22T04:22:43;20.17;;;15.60;;
55423;SDS011;41294;42.666;23.350;2023-11-22T04:25:12;18.63;;;14.53;;
55423;SDS011;41294;42.666;23.350;2023-11-22T04:27:38;19.73;;;15.30;;
55423;SDS011;41294;42.666;23.350;2023-11-22T04:30:05;21.90;;;15.47;;
55423;SDS011;41294;42.666;23.350;2023-11-22T04:32:33;19.90;;;16.20;;
55423;SDS011;41294;42.666;23.350;2023-11-22T04:35:01;22.13;;;15.83;;
55423;SDS011;41294;42.666;23.350;2023-11-22T04:37:29;19.20;;;15.43;;
55423;SDS011;41294;42.666;23.350;2023-11-22T04:39:56;19.90;;;15.33;;
55423;SDS011;41294;42.666;23.350;2023-11-22T04:42:22;20.10;;;14.80;;
55423;SDS011;41294;42.666;23.350;2023-11-22T04:44:48;21.53;;;15.67;;
55423;SDS011;41294;42.666;23.350;2023-11-22T04:47:14;20.57;;;14.37;;
55423;SDS011;41294;42.666;23.350;2023-11-22T04:49:39;22.03;;;15.17;;
55423;SDS011;41294;42.666;23.350;2023-11-22T04:52:05;17.87;;;15.20;;
55423;SDS011;41294;42.666;23.350;2023-11-22T04:54:30;21.80;;;15.40;;
55423;SDS011;41294;42.666;23.350;2023-11-22T04:56:56;18.60;;;14.83;;
55423;SDS011;41294;42.666;23.350;2023-11-22T04:59:22;19.57;;;14.20;;
55423;SDS011;41294;42.666;23.350;2023-11-22T05:01:47;16.47;;;14.63;;
55423;SDS011;41294;42.666;23.350;2023-11-22T05:04:14;20.37;;;15.97;;
55423;SDS011;41294;42.666;23.350;2023-11-22T05:06:39;22.07;;;16.37;;
55423;SDS011;41294;42.666;23.350;2023-11-22T05:09:05;20.87;;;16.67;;
55423;SDS011;41294;42.666;23.350;2023-11-22T05:11:31;19.63;;;15.73;;
55423;SDS011;41294;42.666;23.350;2023-11-22T05:13:57;20.57;;;16.10;;
55423;SDS011;41294;42.666;23.350;2023-11-22T05:16:22;20.00;;;15.90;;
55423;SDS011;41294;42.666;23.350;2023-11-22T05:18:49;17.87;;;15.33;;
55423;SDS011;41294;42.666;23.350;2023-11-22T05:21:15;20.17;;;15.53;;
55423;SDS011;41294;42.666;23.350;2023-11-22T05:23:40;22.27;;;16.60;;
55423;SDS011;41294;42.666;23.350;2023-11-22T05:26:06;19.70;;;14.83;;
55423;SDS011;41294;42.666;23.350;2023-11-22T05:28:31;24.53;;;15.87;;
55423;SDS011;41294;42.666;23.350;2023-11-22T05:30:58;17.17;;;15.30;;
55423;SDS011;41294;42.666;23.350;2023-11-22T05:33:25;21.77;;;15.50;;
55423;SDS011;41294;42.666;23.350;2023-11-22T05:35:50;23.07;;;16.23;;
55423;SDS011;41294;42.666;23.350;2023-11-22T05:38:15;21.00;;;15.60;;
55423;SDS011;41294;42.666;23.350;2023-11-22T05:40:41;18.77;;;15.53;;
55423;SDS011;41294;42.666;23.350;2023-11-22T05:43:08;18.03;;;15.53;;
55423;SDS011;41294;42.666;23.350;2023-11-22T05:45:34;17.23;;;15.20;;
55423;SDS011;41294;42.666;23.350;2023-11-22T05:48:00;20.07;;;15.70;;
55423;SDS011;41294;42.666;23.350;2023-11-22T05:50:25;19.57;;;15.83;;
55423;SDS011;41294;42.666;23.350;2023-11-22T05:52:51;20.03;;;17.13;;
55423;SDS011;41294;42.666;23.350;2023-11-22T05:55:16;23.50;;;16.87;;
55423;SDS011;41294;42.666;23.350;2023-11-22T05:57:43;19.40;;;16.67;;
55423;SDS011;41294;42.666;23.350;2023-11-22T06:00:09;18.07;;;16.13;;
55423;SDS011;41294;42.666;23.350;2023-11-22T06:02:35;22.87;;;17.43;;
55423;SDS011;41294;42.666;23.350;2023-11-22T06:05:02;21.97;;;17.73;;
55423;SDS011;41294;42.666;23.350;2023-11-22T06:07:28;20.27;;;16.73;;
55423;SDS011;41294;42.666;23.350;2023-11-22T06:09:55;23.47;;;17.10;;
55423;SDS011;41294;42.666;23.350;2023-11-22T06:12:22;20.27;;;16.27;;
55423;SDS011;41294;42.666;23.350;2023-11-22T06:17:24;20.63;;;17.27;;
55423;SDS011;41294;42.666;23.350;2023-11-22T06:31:15;20.97;;;16.43;;
55423;SDS011;41294;42.666;23.350;2023-11-22T06:36:17;23.30;;;17.90;;
55423;SDS011;41294;42.666;23.350;2023-11-22T06:38:43;23.23;;;17.33;;
55423;SDS011;41294;42.666;23.350;2023-11-22T06:41:10;19.70;;;16.00;;
55423;SDS011;41294;42.666;23.350;2023-11-22T06:43:36;19.37;;;15.70;;
55423;SDS011;41294;42.666;23.350;2023-11-22T06:46:02;21.23;;;16.33;;
55423;SDS011;41294;42.666;23.350;2023-11-22T06:48:30;19.70;;;16.63;;
55423;SDS011;41294;42.666;23.350;2023-11-22T06:50:57;21.67;;;16.77;;
55423;SDS011;41294;42.666;23.350;2023-11-22T06:53:22;21.30;;;17.73;;
55423;SDS011;41294;42.666;23.350;2023-11-22T06:55:48;25.13;;;16.73;;
55423;SDS011;41294;42.666;23.350;2023-11-22T06:58:13;20.73;;;15.73;;
55423;SDS011;41294;42.666;23.350;2023-11-22T07:00:39;21.10;;;17.20;;
55423;SDS011;41294;42.666;23.350;2023-11-22T07:03:05;17.97;;;15.87;;
55423;SDS011;41294;42.666;23.350;2023-11-22T07:05:31;21.97;;;16.83;;
55423;SDS011;41294;42.666;23.350;2023-11-22T07:07:56;23.03;;;16.93;;
55423;SDS011;41294;42.666;23.350;2023-11-22T07:10:22;20.77;;;15.90;;
55423;SDS011;41294;42.666;23.350;2023-11-22T07:12:47;21.53;;;17.40;;
55423;SDS011;41294;42.666;23.350;2023-11-22T07:15:13;24.77;;;18.20;;
55423;SDS011;41294;42.666;23.350;2023-11-22T07:17:38;20.93;;;17.40;;
55423;SDS011;41294;42.666;23.350;2023-11-22T07:20:05;24.17;;;18.20;;
55423;SDS011;41294;42.666;23.350;2023-11-22T07:22:34;20.30;;;16.83;;
55423;SDS011;41294;42.666;23.350;2023-11-22T07:25:00;22.10;;;17.30;;
55423;SDS011;41294;42.666;23.350;2023-11-22T07:27:28;24.23;;;18.10;;
55423;SDS011;41294;42.666;23.350;2023-11-22T07:29:54;23.50;;;17.37;;
55423;SDS011;41294;42.666;23.350;2023-11-22T07:32:19;20.33;;;17.87;;
55423;SDS011;41294;42.666;23.350;2023-11-22T07:34:48;20.97;;;16.23;;
55423;SDS011;41294;42.666;23.350;2023-11-22T07:37:13;21.23;;;16.37;;
55423;SDS011;41294;42.666;23.350;2023-11-22T07:39:40;18.63;;;16.30;;
55423;SDS011;41294;42.666;23.350;2023-11-22T07:42:08;21.63;;;17.33;;
55423;SDS011;41294;42.666;23.350;2023-11-22T07:44:34;22.87;;;18.10;;
55423;SDS011;41294;42.666;23.350;2023-11-22T07:47:02;20.50;;;17.50;;
55423;SDS011;41294;42.666;23.350;2023-11-22T07:49:31;22.43;;;18.10;;
55423;SDS011;41294;42.666;23.350;2023-11-22T07:51:56;22.60;;;17.83;;
55423;SDS011;41294;42.666;23.350;2023-11-22T07:54:21;21.50;;;17.33;;
55423;SDS011;41294;42.666;23.350;2023-11-22T07:56:50;22.67;;;17.10;;
55423;SDS011;41294;42.666;23.350;2023-11-22T07:59:17;18.40;;;16.47;;
55423;SDS011;41294;42.666;23.350;2023-11-22T08:01:43;22.80;;;18.20;;
55423;SDS011;41294;42.666;23.350;2023-11-22T08:04:09;23.23;;;18.60;;
55423;SDS011;41294;42.666;23.350;2023-11-22T08:06:34;19.50;;;16.90;;
55423;SDS011;41294;42.666;23.350;2023-11-22T08:11:36;21.93;;;16.20;;
55423;SDS011;41294;42.666;23.350;2023-11-22T08:14:02;18.33;;;15.67;;
55423;SDS011;41294;42.666;23.350;2023-11-22T08:16:28;18.77;;;15.80;;
55423;SDS011;41294;42.666;23.350;2023-11-22T08:18:53;18.90;;;15.53;;
55423;SDS011;41294;42.666;23.350;2023-11-22T08:21:19;20.40;;;16.03;;
55423;SDS011;41294;42.666;23.350;2023-11-22T08:23:48;18.90;;;16.80;;
55423;SDS011;41294;42.666;23.350;2023-11-22T08:26:13;21.13;;;17.00;;
55423;SDS011;41294;42.666;23.350;2023-11-22T08:28:39;19.87;;;15.43;;
55423;SDS011;41294;42.666;23.350;2023-11-22T08:31:05;18.57;;;16.27;;
55423;SDS011;41294;42.666;23.350;2023-11-22T08:33:34;18.17;;;15.10;;
55423;SDS011;41294;42.666;23.350;2023-11-22T08:36:00;17.67;;;14.70;;
55423;SDS011;41294;42.666;23.350;2023-11-22T08:38:26;19.33;;;15.90;;
55423;SDS011;41294;42.666;23.350;2023-11-22T08:40:51;19.17;;;15.53;;
55423;SDS011;41294;42.666;23.350;2023-11-22T08:43:17;20.73;;;16.10;;
55423;SDS011;41294;42.666;23.350;2023-11-22T08:45:47;18.73;;;15.60;;
55423;SDS011;41294;42.666;23.350;2023-11-22T08:48:13;19.83;;;15.37;;
55423;SDS011;41294;42.666;23.350;2023-11-22T08:50:40;17.03;;;14.57;;
55423;SDS011;41294;42.666;23.350;2023-11-22T08:53:05;15.80;;;13.07;;
55423;SDS011;41294;42.666;23.350;2023-11-22T08:55:31;17.43;;;14.00;;
55423;SDS011;41294;42.666;23.350;2023-11-22T08:57:59;14.53;;;12.57;;
55423;SDS011;41294;42.666;23.350;2023-11-22T09:00:24;15.67;;;13.90;;
55423;SDS011;41294;42.666;23.350;2023-11-22T09:02:54;19.07;;;13.73;;
55423;SDS011;41294;42.666;23.350;2023-11-22T09:05:22;16.03;;;14.33;;
55423;SDS011;41294;42.666;23.350;2023-11-22T09:07:48;16.47;;;14.23;;
55423;SDS011;41294;42.666;23.350;2023-11-22T09:10:14;17.27;;;15.33;;
55423;SDS011;41294;42.666;23.350;2023-11-22T09:12:40;18.37;;;15.07;;
55423;SDS011;41294;42.666;23.350;2023-11-22T09:15:09;17.47;;;14.80;;
55423;SDS011;41294;42.666;23.350;2023-11-22T09:17:39;18.27;;;15.33;;
55423;SDS011;41294;42.666;23.350;2023-11-22T09:22:45;18.67;;;15.27;;
55423;SDS011;41294;42.666;23.350;2023-11-22T09:25:18;19.17;;;15.53;;
55423;SDS011;41294;42.666;23.350;2023-11-22T09:27:53;18.77;;;16.40;;
55423;SDS011;41294;42.666;23.350;2023-11-22T09:30:26;18.40;;;15.80;;
55423;SDS011;41294;42.666;23.350;2023-11-22T09:33:14;18.80;;;16.37;;
55423;SDS011;41294;42.666;23.350;2023-11-22T09:35:41;21.20;;;17.17;;
55423;SDS011;41294;42.666;23.350;2023-11-22T09:38:09;19.90;;;17.70;;
55423;SDS011;41294;42.666;23.350;2023-11-22T09:40:36;21.70;;;16.83;;
55423;SDS011;41294;42.666;23.350;2023-11-22T09:43:09;22.57;;;17.57;;
55423;SDS011;41294;42.666;23.350;2023-11-22T09:45:35;19.10;;;16.93;;
55423;SDS011;41294;42.666;23.350;2023-11-22T09:48:03;22.13;;;17.63;;
55423;SDS011;41294;42.666;23.350;2023-11-22T09:50:40;21.53;;;17.57;;
55423;SDS011;41294;42.666;23.350;2023-11-22T09:55:55;23.57;;;18.23;;
55423;SDS011;41294;42.666;23.350;2023-11-22T09:58:22;24.37;;;17.73;;
55423;SDS011;41294;42.666;23.350;2023-11-22T10:00:49;19.23;;;16.60;;
55423;SDS011;41294;42.666;23.350;2023-11-22T10:03:17;22.17;;;17.50;;
55423;SDS011;41294;42.666;23.350;2023-11-22T10:05:45;20.30;;;17.70;;
55423;SDS011;41294;42.666;23.350;2023-11-22T10:08:10;23.90;;;19.20;;
55423;SDS011;41294;42.666;23.350;2023-11-22T10:10:36;22.20;;;19.20;;
55423;SDS011;41294;42.666;23.350;2023-11-22T10:13:02;24.37;;;19.10;;
55423;SDS011;41294;42.666;23.350;2023-11-22T10:15:28;23.67;;;19.10;;
55423;SDS011;41294;42.666;23.350;2023-11-22T10:17:58;21.40;;;18.63;;
55423;SDS011;41294;42.666;23.350;2023-11-22T10:20:47;22.43;;;19.03;;
55423;SDS011;41294;42.666;23.350;2023-11-22T10:23:13;23.57;;;18.30;;
55423;SDS011;41294;42.666;23.350;2023-11-22T10:25:49;24.73;;;19.43;;
55423;SDS011;41294;42.666;23.350;2023-11-22T10:28:20;21.27;;;18.00;;
55423;SDS011;41294;42.666;23.350;2023-11-22T10:30:49;21.27;;;18.63;;
55423;SDS011;41294;42.666;23.350;2023-11-22T10:33:16;24.70;;;20.10;;
55423;SDS011;41294;42.666;23.350;2023-11-22T10:35:47;24.17;;;19.20;;
55423;SDS011;41294;42.666;23.350;2023-11-22T10:38:19;25.17;;;19.43;;
55423;SDS011;41294;42.666;23.350;2023-11-22T10:43:13;23.20;;;19.33;;
55423;SDS011;41294;42.666;23.350;2023-11-22T10:45:41;22.50;;;20.07;;
55423;SDS011;41294;42.666;23.350;2023-11-22T10:48:14;23.47;;;20.93;;
55423;SDS011;41294;42.666;23.350;2023-11-22T10:50:45;25.37;;;20.23;;
55423;SDS011;41294;42.666;23.350;2023-11-22T10:53:11;26.27;;;20.77;;
55423;SDS011;41294;42.666;23.350;2023-11-22T10:55:46;24.67;;;21.90;;
55423;SDS011;41294;42.666;23.350;2023-11-22T10:58:13;25.50;;;21.30;;
55423;SDS011;41294;42.666;23.350;2023-11-22T11:00:41;26.37;;;22.20;;
55423;SDS011;41294;42.666;23.350;2023-11-22T11:03:11;28.43;;;22.20;;
55423;SDS011;41294;42.666;23.350;2023-11-22T11:05:41;24.90;;;21.27;;
55423;SDS011;41294;42.666;23.350;2023-11-22T11:08:13;27.97;;;22.13;;
55423;SDS011;41294;42.666;23.350;2023-11-22T11:10:43;26.93;;;22.23;;
55423;SDS011;41294;42.666;23.350;2023-11-22T11:13:11;28.27;;;21.70;;
55423;SDS011;41294;42.666;23.350;2023-11-22T11:15:40;24.20;;;20.27;;
55423;SDS011;41294;42.666;23.350;2023-11-22T11:18:08;28.33;;;23.43;;
55423;SDS011;41294;42.666;23.350;2023-11-22T11:20:51;29.83;;;22.43;;
55423;SDS011;41294;42.666;23.350;2023-11-22T11:23:36;29.77;;;23.00;;
55423;SDS011;41294;42.666;23.350;2023-11-22T11:28:47;25.57;;;20.87;;
55423;SDS011;41294;42.666;23.350;2023-11-22T11:31:14;25.67;;;21.23;;
55423;SDS011;41294;42.666;23.350;2023-11-22T11:38:58;28.47;;;20.47;;
55423;SDS011;41294;42.666;23.350;2023-11-22T11:41:29;27.93;;;22.33;;
55423;SDS011;41294;42.666;23.350;2023-11-22T11:43:57;28.13;;;22.83;;
55423;SDS011;41294;42.666;23.350;2023-11-22T11:46:23;27.83;;;23.90;;
55423;SDS011;41294;42.666;23.350;2023-11-22T11:48:51;25.93;;;22.27;;
55423;SDS011;41294;42.666;23.350;2023-11-22T11:51:18;26.73;;;20.43;;
55423;SDS011;41294;42.666;23.350;2023-11-22T11:53:48;24.93;;;21.37;;
55423;SDS011;41294;42.666;23.350;2023-11-22T11:56:14;24.60;;;20.57;;
55423;SDS011;41294;42.666;23.350;2023-11-22T11:58:43;23.13;;;20.67;;
55423;SDS011;41294;42.666;23.350;2023-11-22T12:01:13;25.97;;;20.90;;
55423;SDS011;41294;42.666;23.350;2023-11-22T12:03:39;23.60;;;20.57;;
55423;SDS011;41294;42.666;23.350;2023-11-22T12:06:06;24.13;;;20.37;;
55423;SDS011;41294;42.666;23.350;2023-11-22T12:08:32;25.87;;;20.33;;
55423;SDS011;41294;42.666;23.350;2023-11-22T12:11:01;26.07;;;20.73;;
55423;SDS011;41294;42.666;23.350;2023-11-22T12:13:32;23.47;;;20.03;;
55423;SDS011;41294;42.666;23.350;2023-11-22T12:15:58;24.17;;;19.97;;
55423;SDS011;41294;42.666;23.350;2023-11-22T14:38:02;13.20;;;11.83;;
55423;SDS011;41294;42.666;23.350;2023-11-22T14:40:30;13.47;;;11.13;;
55423;SDS011;41294;42.666;23.350;2023-11-22T14:42:57;14.00;;;10.60;;
55423;SDS011;41294;42.666;23.350;2023-11-22T14:45:24;15.77;;;11.33;;
55423;SDS011;41294;42.666;23.350;2023-11-22T14:47:51;14.97;;;12.77;;
55423;SDS011;41294;42.666;23.350;2023-11-22T14:50:17;13.70;;;10.40;;
55423;SDS011;41294;42.666;23.350;2023-11-22T14:52:42;12.57;;;11.27;;
55423;SDS011;41294;42.666;23.350;2023-11-22T14:55:09;12.57;;;11.10;;
55423;SDS011;41294;42.666;23.350;2023-11-22T14:57:37;13.93;;;10.40;;
55423;SDS011;41294;42.666;23.350;2023-11-22T15:00:03;13.63;;;10.93;;
55423;SDS011;41294;42.666;23.350;2023-11-22T15:02:36;12.23;;;10.43;;
55423;SDS011;41294;42.666;23.350;2023-11-22T15:05:02;13.27;;;10.70;;
55423;SDS011;41294;42.666;23.350;2023-11-22T15:07:29;14.20;;;10.97;;
55423;SDS011;41294;42.666;23.350;2023-11-22T15:09:54;14.63;;;11.00;;
55423;SDS011;41294;42.666;23.350;2023-11-22T15:12:19;13.73;;;11.53;;
55423;SDS011;41294;42.666;23.350;2023-11-22T15:14:46;13.37;;;10.90;;
55423;SDS011;41294;42.666;23.350;2023-11-22T15:17:13;13.90;;;10.90;;
55423;SDS011;41294;42.666;23.350;2023-11-22T15:19:38;16.23;;;11.67;;
55423;SDS011;41294;42.666;23.350;2023-11-22T15:22:06;13.20;;;11.23;;
55423;SDS011;41294;42.666;23.350;2023-11-22T15:24:32;13.70;;;11.00;;
55423;SDS011;41294;42.666;23.350;2023-11-22T15:26:57;15.27;;;11.70;;
55423;SDS011;41294;42.666;23.350;2023-11-22T15:29:23;15.37;;;11.60;;
55423;SDS011;41294;42.666;23.350;2023-11-22T15:31:49;16.13;;;12.17;;
55423;SDS011;41294;42.666;23.350;2023-11-22T15:34:16;17.90;;;12.97;;
55423;SDS011;41294;42.666;23.350;2023-11-22T15:36:41;18.80;;;14.67;;
55423;SDS011;41294;42.666;23.350;2023-11-22T15:39:07;15.30;;;12.47;;
55423;SDS011;41294;42.666;23.350;2023-11-22T15:41:37;14.20;;;12.47;;
55423;SDS011;41294;42.666;23.350;2023-11-22T15:44:03;20.30;;;14.80;;
55423;SDS011;41294;42.666;23.350;2023-11-22T15:46:28;20.10;;;14.93;;
55423;SDS011;41294;42.666;23.350;2023-11-22T15:48:54;18.23;;;13.10;;
55423;SDS011;41294;42.666;23.350;2023-11-22T15:51:20;17.53;;;13.60;;
55423;SDS011;41294;42.666;23.350;2023-11-22T15:53:46;15.10;;;12.97;;
55423;SDS011;41294;42.666;23.350;2023-11-22T15:56:11;16.57;;;12.13;;
55423;SDS011;41294;42.666;23.350;2023-11-22T15:58:43;19.03;;;14.33;;
55423;SDS011;41294;42.666;23.350;2023-11-22T16:01:09;16.87;;;12.67;;
55423;SDS011;41294;42.666;23.350;2023-11-22T16:03:36;18.77;;;13.00;;
55423;SDS011;41294;42.666;23.350;2023-11-22T16:06:03;12.97;;;11.37;;
55423;SDS011;41294;42.666;23.350;2023-11-22T16:08:30;16.47;;;11.23;;
55423;SDS011;41294;42.666;23.350;2023-11-22T16:10:55;13.20;;;10.23;;
55423;SDS011;41294;42.666;23.350;2023-11-22T16:13:21;15.07;;;11.20;;
55423;SDS011;41294;42.666;23.350;2023-11-22T16:15:51;11.20;;;9.70;;
55423;SDS011;41294;42.666;23.350;2023-11-22T16:18:24;12.43;;;9.87;;
55423;SDS011;41294;42.666;23.350;2023-11-22T16:20:54;16.30;;;11.40;;
55423;SDS011;41294;42.666;23.350;2023-11-22T16:23:20;12.13;;;9.77;;
55423;SDS011;41294;42.666;23.350;2023-11-22T16:25:46;11.63;;;10.40;;
55423;SDS011;41294;42.666;23.350;2023-11-22T16:28:11;13.63;;;9.90;;
55423;SDS011;41294;42.666;23.350;2023-11-22T16:30:37;12.13;;;9.87;;
55423;SDS011;41294;42.666;23.350;2023-11-22T16:33:02;10.67;;;9.33;;
55423;SDS011;41294;42.666;23.350;2023-11-22T16:35:28;9.70;;;8.67;;
55423;SDS011;41294;42.666;23.350;2023-11-22T16:37:54;13.17;;;9.70;;
55423;SDS011;41294;42.666;23.350;2023-11-22T16:40:21;9.47;;;8.47;;
55423;SDS011;41294;42.666;23.350;2023-11-22T16:42:47;12.03;;;9.50;;
55423;SDS011;41294;42.666;23.350;2023-11-22T16:45:13;13.23;;;9.27;;
55423;SDS011;41294;42.666;23.350;2023-11-22T16:47:38;11.23;;;8.83;;
55423;SDS011;41294;42.666;23.350;2023-11-22T16:50:04;10.03;;;8.50;;
55423;SDS011;41294;42.666;23.350;2023-11-22T16:52:30;10.77;;;8.50;;
55423;SDS011;41294;42.666;23.350;2023-11-22T16:54:58;10.37;;;8.53;;
55423;SDS011;41294;42.666;23.350;2023-11-22T16:57:24;10.50;;;8.20;;
55423;SDS011;41294;42.666;23.350;2023-11-22T16:59:50;11.07;;;8.93;;
55423;SDS011;41294;42.666;23.350;2023-11-22T17:02:15;12.03;;;8.67;;